sensor_id;sensor_type;location;lat;lon;timestamp;pressure;altitude;pressure_sealevel;temperature;humidity
50592;BME280;36548;50.506;30.834;2023-05-29T00:00:25;100330.06;;;15.06;37.04
50592;BME280;36548;50.506;30.834;2023-05-29T00:01:40;100327.33;;;15.17;37.17
50592;BME280;36548;50.506;30.834;2023-05-29T00:02:50;100343.09;;;15.01;37.22
50592;BME280;36548;50.506;30.834;2023-05-29T00:04:01;100341.87;;;14.94;37.17
50592;BME280;36548;50.506;30.834;2023-05-29T00:05:23;100329.67;;;15.11;37.31
50592;BME280;36548;50.506;30.834;2023-05-29T00:06:43;100340.39;;;15.01;37.28
50592;BME280;36548;50.506;30.834;2023-05-29T00:07:53;100337.55;;;15.03;37.25
50592;BME280;36548;50.506;30.834;2023-05-29T00:09:14;100330.06;;;15.06;37.26
50592;BME280;36548;50.506;30.834;2023-05-29T00:10:24;100328.39;;;14.82;37.57
50592;BME280;36548;50.506;30.834;2023-05-29T00:11:39;100330.95;;;14.84;37.61
50592;BME280;36548;50.506;30.834;2023-05-29T00:12:49;100328.00;;;14.87;37.38
50592;BME280;36548;50.506;30.834;2023-05-29T00:14:06;100319.25;;;14.95;37.56
50592;BME280;36548;50.506;30.834;2023-05-29T00:15:22;100337.45;;;14.93;37.44
50592;BME280;36548;50.506;30.834;2023-05-29T00:16:32;100326.41;;;14.85;37.39
50592;BME280;36548;50.506;30.834;2023-05-29T00:17:49;100333.25;;;15.00;37.49
50592;BME280;36548;50.506;30.834;2023-05-29T00:18:58;100330.95;;;14.84;37.68
50592;BME280;36548;50.506;30.834;2023-05-29T00:20:15;100333.38;;;14.98;37.66
50592;BME280;36548;50.506;30.834;2023-05-29T00:21:24;100328.97;;;14.86;37.64
50592;BME280;36548;50.506;30.834;2023-05-29T00:22:36;100332.32;;;14.78;37.78
50592;BME280;36548;50.506;30.834;2023-05-29T00:23:47;100331.80;;;14.85;37.63
50592;BME280;36548;50.506;30.834;2023-05-29T00:25:07;100331.91;;;14.94;37.63
50592;BME280;36548;50.506;30.834;2023-05-29T00:26:17;100340.89;;;14.83;37.63
50592;BME280;36548;50.506;30.834;2023-05-29T00:27:33;100333.14;;;14.90;37.93
50592;BME280;36548;50.506;30.834;2023-05-29T00:28:43;100336.84;;;14.78;37.82
50592;BME280;36548;50.506;30.834;2023-05-29T00:29:59;100331.06;;;14.94;37.75
50592;BME280;36548;50.506;30.834;2023-05-29T00:31:19;100333.88;;;14.81;37.89
50592;BME280;36548;50.506;30.834;2023-05-29T00:32:34;100335.50;;;14.72;37.83
50592;BME280;36548;50.506;30.834;2023-05-29T00:33:44;100331.70;;;14.75;37.90
50592;BME280;36548;50.506;30.834;2023-05-29T00:35:00;100330.94;;;14.73;38.33
50592;BME280;36548;50.506;30.834;2023-05-29T00:36:10;100329.58;;;14.56;38.40
50592;BME280;36548;50.506;30.834;2023-05-29T00:37:19;100339.55;;;14.66;38.38
50592;BME280;36548;50.506;30.834;2023-05-29T00:38:36;100340.91;;;14.72;38.40
50592;BME280;36548;50.506;30.834;2023-05-29T00:39:46;100341.41;;;14.66;38.27
50592;BME280;36548;50.506;30.834;2023-05-29T00:41:02;100331.44;;;14.78;38.17
50592;BME280;36548;50.506;30.834;2023-05-29T00:42:12;100346.18;;;14.74;38.12
50592;BME280;36548;50.506;30.834;2023-05-29T00:43:28;100334.89;;;14.80;38.33
50592;BME280;36548;50.506;30.834;2023-05-29T00:44:38;100341.28;;;14.68;38.10
50592;BME280;36548;50.506;30.834;2023-05-29T00:45:49;100334.50;;;14.62;38.21
50592;BME280;36548;50.506;30.834;2023-05-29T00:47:06;100329.12;;;14.73;38.23
50592;BME280;36548;50.506;30.834;2023-05-29T00:48:16;100328.73;;;14.55;38.35
50592;BME280;36548;50.506;30.834;2023-05-29T00:49:27;100329.72;;;14.65;38.16
50592;BME280;36548;50.506;30.834;2023-05-29T00:50:44;100320.04;;;14.74;38.17
50592;BME280;36548;50.506;30.834;2023-05-29T00:51:54;100328.13;;;14.63;38.08
50592;BME280;36548;50.506;30.834;2023-05-29T00:53:10;100325.33;;;14.64;38.19
50592;BME280;36548;50.506;30.834;2023-05-29T00:54:22;100324.92;;;14.58;38.13
50592;BME280;36548;50.506;30.834;2023-05-29T00:55:39;100318.64;;;14.57;38.17
50592;BME280;36548;50.506;30.834;2023-05-29T00:56:50;100329.20;;;14.49;38.38
50592;BME280;36548;50.506;30.834;2023-05-29T00:58:06;100319.05;;;14.64;38.26
50592;BME280;36548;50.506;30.834;2023-05-29T00:59:16;100325.33;;;14.64;37.93
50592;BME280;36548;50.506;30.834;2023-05-29T01:00:35;100334.52;;;14.73;37.94
50592;BME280;36548;50.506;30.834;2023-05-29T01:01:56;100326.41;;;14.51;37.97
50592;BME280;36548;50.506;30.834;2023-05-29T01:03:20;100328.99;;;14.75;38.05
50592;BME280;36548;50.506;30.834;2023-05-29T01:04:33;100333.62;;;14.61;37.85
50592;BME280;36548;50.506;30.834;2023-05-29T01:05:49;100325.77;;;14.58;38.13
50592;BME280;36548;50.506;30.834;2023-05-29T01:07:00;100335.10;;;14.54;38.23
50592;BME280;36548;50.506;30.834;2023-05-29T01:08:11;100335.23;;;14.53;38.21
50592;BME280;36548;50.506;30.834;2023-05-29T01:09:27;100322.72;;;14.63;38.18
50592;BME280;36548;50.506;30.834;2023-05-29T01:10:39;100331.77;;;14.39;38.51
50592;BME280;36548;50.506;30.834;2023-05-29T01:12:14;100334.25;;;14.54;38.40
50592;BME280;36548;50.506;30.834;2023-05-29T01:13:23;100335.73;;;14.46;38.23
50592;BME280;36548;50.506;30.834;2023-05-29T01:17:35;100341.48;;;14.30;38.55
50592;BME280;36548;50.506;30.834;2023-05-29T01:18:52;100333.25;;;14.43;38.59
50592;BME280;36548;50.506;30.834;2023-05-29T01:26:07;100330.80;;;14.40;38.66
50592;BME280;36548;50.506;30.834;2023-05-29T01:27:19;100341.09;;;14.24;38.57
50592;BME280;36548;50.506;30.834;2023-05-29T01:28:44;100329.58;;;14.44;38.60
50592;BME280;36548;50.506;30.834;2023-05-29T01:29:55;100332.48;;;14.19;38.95
50592;BME280;36548;50.506;30.834;2023-05-29T01:31:30;100337.17;;;14.28;38.86
50592;BME280;36548;50.506;30.834;2023-05-29T01:32:41;100341.08;;;14.12;38.98
50592;BME280;36548;50.506;30.834;2023-05-29T01:33:59;100346.16;;;14.28;38.99
50592;BME280;36548;50.506;30.834;2023-05-29T01:35:08;100346.23;;;14.15;38.94
50592;BME280;36548;50.506;30.834;2023-05-29T01:36:18;100345.70;;;13.99;39.11
50592;BME280;36548;50.506;30.834;2023-05-29T01:37:33;100341.72;;;14.16;39.14
50592;BME280;36548;50.506;30.834;2023-05-29T01:38:42;100347.06;;;14.05;39.24
50592;BME280;36548;50.506;30.834;2023-05-29T01:39:57;100344.89;;;14.21;39.30
50592;BME280;36548;50.506;30.834;2023-05-29T01:41:07;100356.19;;;14.15;39.11
50592;BME280;36548;50.506;30.834;2023-05-29T01:42:28;100348.85;;;14.28;39.16
50592;BME280;36548;50.506;30.834;2023-05-29T01:43:39;100355.09;;;14.18;39.24
50592;BME280;36548;50.506;30.834;2023-05-29T01:44:49;100355.21;;;14.16;39.17
50592;BME280;36548;50.506;30.834;2023-05-29T01:46:04;100353.99;;;14.20;39.08
50592;BME280;36548;50.506;30.834;2023-05-29T01:47:15;100345.95;;;13.96;39.25
50592;BME280;36548;50.506;30.834;2023-05-29T01:48:31;100348.06;;;14.04;39.57
50592;BME280;36548;50.506;30.834;2023-05-29T01:49:42;100349.03;;;14.03;39.28
50592;BME280;36548;50.506;30.834;2023-05-29T01:50:59;100344.15;;;14.08;39.16
50592;BME280;36548;50.506;30.834;2023-05-29T01:52:10;100350.64;;;14.05;39.19
50592;BME280;36548;50.506;30.834;2023-05-29T01:53:25;100348.93;;;14.15;38.97
50592;BME280;36548;50.506;30.834;2023-05-29T01:54:34;100347.95;;;14.17;38.82
50592;BME280;36548;50.506;30.834;2023-05-29T01:55:51;100350.67;;;14.28;38.83
50592;BME280;36548;50.506;30.834;2023-05-29T01:57:02;100359.39;;;14.20;38.77
50592;BME280;36548;50.506;30.834;2023-05-29T01:58:21;100354.59;;;14.24;38.87
50592;BME280;36548;50.506;30.834;2023-05-29T01:59:31;100352.72;;;14.13;38.98
50592;BME280;36548;50.506;30.834;2023-05-29T02:00:48;100360.83;;;14.13;39.01
50592;BME280;36548;50.506;30.834;2023-05-29T02:01:57;100361.45;;;14.17;38.92
50592;BME280;36548;50.506;30.834;2023-05-29T02:03:12;100368.11;;;14.35;38.81
50592;BME280;36548;50.506;30.834;2023-05-29T02:04:22;100366.73;;;14.18;38.96
50592;BME280;36548;50.506;30.834;2023-05-29T02:05:37;100362.83;;;14.33;38.85
50592;BME280;36548;50.506;30.834;2023-05-29T02:06:46;100365.77;;;14.19;38.83
50592;BME280;36548;50.506;30.834;2023-05-29T02:08:02;100358.64;;;14.29;38.95
50592;BME280;36548;50.506;30.834;2023-05-29T02:09:12;100372.52;;;14.25;38.82
50592;BME280;36548;50.506;30.834;2023-05-29T02:10:22;100374.12;;;14.27;38.79
50592;BME280;36548;50.506;30.834;2023-05-29T02:11:32;100370.93;;;14.33;38.70
50592;BME280;36548;50.506;30.834;2023-05-29T02:12:43;100374.86;;;14.41;38.63
50592;BME280;36548;50.506;30.834;2023-05-29T02:13:58;100368.87;;;14.60;38.36
50592;BME280;36548;50.506;30.834;2023-05-29T02:15:10;100377.94;;;14.47;38.52
50592;BME280;36548;50.506;30.834;2023-05-29T02:16:20;100365.19;;;14.49;38.28
50592;BME280;36548;50.506;30.834;2023-05-29T02:17:35;100368.49;;;14.53;38.69
50592;BME280;36548;50.506;30.834;2023-05-29T02:18:45;100377.47;;;14.42;38.65
50592;BME280;36548;50.506;30.834;2023-05-29T02:19:55;100380.76;;;14.35;38.84
50592;BME280;36548;50.506;30.834;2023-05-29T02:21:05;100383.09;;;14.39;38.60
50592;BME280;36548;50.506;30.834;2023-05-29T02:22:21;100369.53;;;14.63;38.43
50592;BME280;36548;50.506;30.834;2023-05-29T02:23:30;100371.44;;;14.50;38.46
50592;BME280;36548;50.506;30.834;2023-05-29T02:24:47;100374.30;;;14.71;38.17
50592;BME280;36548;50.506;30.834;2023-05-29T02:25:56;100365.19;;;14.61;38.29
50592;BME280;36548;50.506;30.834;2023-05-29T02:27:11;100365.47;;;14.80;38.19
50592;BME280;36548;50.506;30.834;2023-05-29T02:28:20;100367.08;;;14.72;38.20
50592;BME280;36548;50.506;30.834;2023-05-29T02:29:36;100365.81;;;14.98;38.07
50592;BME280;36548;50.506;30.834;2023-05-29T02:30:45;100381.68;;;14.80;37.90
50592;BME280;36548;50.506;30.834;2023-05-29T02:31:55;100373.58;;;14.80;37.95
50592;BME280;36548;50.506;30.834;2023-05-29T02:33:10;100366.80;;;14.97;37.85
50592;BME280;36548;50.506;30.834;2023-05-29T02:34:19;100375.55;;;14.90;37.77
50592;BME280;36548;50.506;30.834;2023-05-29T02:35:30;100377.88;;;14.72;37.96
50592;BME280;36548;50.506;30.834;2023-05-29T02:36:45;100374.16;;;15.07;37.89
50592;BME280;36548;50.506;30.834;2023-05-29T02:37:55;100384.36;;;15.03;37.57
50592;BME280;36548;50.506;30.834;2023-05-29T02:39:05;100374.06;;;14.97;37.73
50592;BME280;36548;50.506;30.834;2023-05-29T02:40:21;100360.03;;;15.14;37.73
50592;BME280;36548;50.506;30.834;2023-05-29T02:41:30;100367.89;;;15.17;37.63
50592;BME280;36548;50.506;30.834;2023-05-29T02:42:46;100366.65;;;15.22;37.53
50592;BME280;36548;50.506;30.834;2023-05-29T02:43:55;100376.97;;;15.16;37.50
50592;BME280;36548;50.506;30.834;2023-05-29T02:45:06;100374.02;;;15.20;37.46
50592;BME280;36548;50.506;30.834;2023-05-29T02:46:21;100363.78;;;15.34;37.40
50592;BME280;36548;50.506;30.834;2023-05-29T02:47:31;100376.23;;;15.26;37.29
50592;BME280;36548;50.506;30.834;2023-05-29T02:48:46;100365.77;;;15.32;37.36
50592;BME280;36548;50.506;30.834;2023-05-29T02:49:56;100367.46;;;15.33;37.13
50592;BME280;36548;50.506;30.834;2023-05-29T02:51:06;100363.91;;;15.33;37.17
50592;BME280;36548;50.506;30.834;2023-05-29T02:52:21;100360.99;;;15.57;37.11
50592;BME280;36548;50.506;30.834;2023-05-29T02:53:31;100355.49;;;15.47;36.85
50592;BME280;36548;50.506;30.834;2023-05-29T02:54:47;100353.98;;;15.55;36.87
50592;BME280;36548;50.506;30.834;2023-05-29T02:55:57;100357.78;;;15.63;36.63
50592;BME280;36548;50.506;30.834;2023-05-29T02:57:12;100358.84;;;15.72;36.42
50592;BME280;36548;50.506;30.834;2023-05-29T02:58:21;100362.80;;;15.68;36.38
50592;BME280;36548;50.506;30.834;2023-05-29T02:59:30;100352.59;;;15.72;36.43
50592;BME280;36548;50.506;30.834;2023-05-29T03:00:42;100358.84;;;15.72;36.49
50592;BME280;36548;50.506;30.834;2023-05-29T03:01:52;100363.86;;;15.77;36.21
50592;BME280;36548;50.506;30.834;2023-05-29T03:03:02;100359.59;;;15.74;36.28
50592;BME280;36548;50.506;30.834;2023-05-29T03:04:18;100354.16;;;15.85;36.28
50592;BME280;36548;50.506;30.834;2023-05-29T03:05:28;100352.43;;;15.84;36.46
50592;BME280;36548;50.506;30.834;2023-05-29T03:06:43;100356.66;;;15.98;36.22
50592;BME280;36548;50.506;30.834;2023-05-29T03:07:53;100349.25;;;16.00;36.16
50592;BME280;36548;50.506;30.834;2023-05-29T03:09:03;100360.22;;;15.99;35.91
50592;BME280;36548;50.506;30.834;2023-05-29T03:10:19;100355.95;;;16.17;36.08
50592;BME280;36548;50.506;30.834;2023-05-29T03:11:36;100351.10;;;16.42;35.54
50592;BME280;36548;50.506;30.834;2023-05-29T03:12:47;100368.28;;;16.31;35.45
50592;BME280;36548;50.506;30.834;2023-05-29T03:14:04;100359.80;;;16.46;35.77
50592;BME280;36548;50.506;30.834;2023-05-29T03:15:14;100356.63;;;16.41;35.55
50592;BME280;36548;50.506;30.834;2023-05-29T03:16:24;100355.87;;;16.60;35.65
50592;BME280;36548;50.506;30.834;2023-05-29T03:17:39;100359.26;;;16.83;35.38
50592;BME280;36548;50.506;30.834;2023-05-29T03:18:51;100358.80;;;16.78;34.95
50592;BME280;36548;50.506;30.834;2023-05-29T03:20:07;100357.68;;;16.80;34.92
50592;BME280;36548;50.506;30.834;2023-05-29T03:21:16;100357.59;;;16.61;35.06
50592;BME280;36548;50.506;30.834;2023-05-29T03:22:26;100363.52;;;16.76;34.99
50592;BME280;36548;50.506;30.834;2023-05-29T03:23:36;100356.66;;;16.72;34.74
50592;BME280;36548;50.506;30.834;2023-05-29T03:24:46;100357.25;;;16.85;34.98
50592;BME280;36548;50.506;30.834;2023-05-29T03:26:02;100359.33;;;16.93;34.58
50592;BME280;36548;50.506;30.834;2023-05-29T03:27:13;100362.11;;;16.81;34.86
50592;BME280;36548;50.506;30.834;2023-05-29T03:28:28;100360.05;;;17.04;34.48
50592;BME280;36548;50.506;30.834;2023-05-29T03:29:39;100366.81;;;17.10;34.74
50592;BME280;36548;50.506;30.834;2023-05-29T03:30:54;100354.88;;;17.42;34.28
50592;BME280;36548;50.506;30.834;2023-05-29T03:32:04;100359.03;;;17.46;33.79
50592;BME280;36548;50.506;30.834;2023-05-29T03:33:14;100361.30;;;17.51;33.66
50592;BME280;36548;50.506;30.834;2023-05-29T03:34:25;100355.87;;;17.51;33.95
50592;BME280;36548;50.506;30.834;2023-05-29T03:35:40;100358.16;;;17.65;33.51
50592;BME280;36548;50.506;30.834;2023-05-29T03:36:49;100352.17;;;17.62;33.35
50592;BME280;36548;50.506;30.834;2023-05-29T03:37:59;100360.03;;;17.75;33.26
50592;BME280;36548;50.506;30.834;2023-05-29T03:39:09;100362.74;;;17.75;33.19
50592;BME280;36548;50.506;30.834;2023-05-29T03:40:24;100350.77;;;17.97;33.54
50592;BME280;36548;50.506;30.834;2023-05-29T03:41:35;100367.88;;;17.87;33.24
50592;BME280;36548;50.506;30.834;2023-05-29T03:42:45;100350.61;;;17.98;32.81
50592;BME280;36548;50.506;30.834;2023-05-29T03:44:01;100353.84;;;18.31;33.07
50592;BME280;36548;50.506;30.834;2023-05-29T03:45:11;100361.97;;;18.41;32.86
50592;BME280;36548;50.506;30.834;2023-05-29T03:46:27;100361.64;;;18.54;32.40
50592;BME280;36548;50.506;30.834;2023-05-29T03:47:36;100355.32;;;18.63;32.64
50592;BME280;36548;50.506;30.834;2023-05-29T03:48:46;100357.95;;;18.83;32.68
50592;BME280;36548;50.506;30.834;2023-05-29T03:50:02;100351.39;;;19.13;32.11
50592;BME280;36548;50.506;30.834;2023-05-29T03:51:13;100362.83;;;18.79;31.36
50592;BME280;36548;50.506;30.834;2023-05-29T03:52:22;100365.16;;;18.64;32.03
50592;BME280;36548;50.506;30.834;2023-05-29T03:53:32;100370.25;;;18.87;32.34
50592;BME280;36548;50.506;30.834;2023-05-29T03:54:42;100366.84;;;19.13;32.27
50592;BME280;36548;50.506;30.834;2023-05-29T03:55:59;100357.04;;;19.48;31.59
50592;BME280;36548;50.506;30.834;2023-05-29T03:57:10;100360.61;;;19.48;31.24
50592;BME280;36548;50.506;30.834;2023-05-29T03:58:26;100357.65;;;19.78;31.42
50592;BME280;36548;50.506;30.834;2023-05-29T03:59:36;100356.64;;;19.79;31.04
50592;BME280;36548;50.506;30.834;2023-05-29T04:00:46;100368.56;;;19.96;31.35
50592;BME280;36548;50.506;30.834;2023-05-29T04:02:01;100358.93;;;20.27;31.30
50592;BME280;36548;50.506;30.834;2023-05-29T04:03:10;100374.50;;;20.35;30.96
50592;BME280;36548;50.506;30.834;2023-05-29T04:04:20;100366.73;;;20.49;30.66
50592;BME280;36548;50.506;30.834;2023-05-29T04:05:30;100371.27;;;20.66;30.71
50592;BME280;36548;50.506;30.834;2023-05-29T04:06:41;100373.37;;;20.72;30.52
50592;BME280;36548;50.506;30.834;2023-05-29T04:07:49;100361.12;;;20.76;30.00
50592;BME280;36548;50.506;30.834;2023-05-29T04:10:10;100365.84;;;21.01;29.93
50592;BME280;36548;50.506;30.834;2023-05-29T04:11:25;100353.45;;;21.15;29.46
50592;BME280;36548;50.506;30.834;2023-05-29T04:12:35;100366.02;;;20.99;29.73
50592;BME280;36548;50.506;30.834;2023-05-29T04:13:50;100360.76;;;21.14;29.67
50592;BME280;36548;50.506;30.834;2023-05-29T04:15:00;100369.66;;;21.16;29.83
50592;BME280;36548;50.506;30.834;2023-05-29T04:16:10;100357.23;;;21.30;29.68
50592;BME280;36548;50.506;30.834;2023-05-29T04:17:19;100365.28;;;21.40;29.46
50592;BME280;36548;50.506;30.834;2023-05-29T04:18:28;100364.09;;;21.42;29.44
50592;BME280;36548;50.506;30.834;2023-05-29T04:19:37;100369.39;;;21.44;29.68
50592;BME280;36548;50.506;30.834;2023-05-29T04:20:53;100358.55;;;21.69;29.45
50592;BME280;36548;50.506;30.834;2023-05-29T04:22:01;100369.47;;;21.69;29.47
50592;BME280;36548;50.506;30.834;2023-05-29T04:23:17;100356.50;;;21.95;29.39
50592;BME280;36548;50.506;30.834;2023-05-29T04:24:26;100365.38;;;21.73;28.89
50592;BME280;36548;50.506;30.834;2023-05-29T04:25:42;100363.84;;;21.70;29.28
50592;BME280;36548;50.506;30.834;2023-05-29T04:26:53;100365.70;;;21.53;29.64
50592;BME280;36548;50.506;30.834;2023-05-29T04:28:08;100364.19;;;21.75;29.56
50592;BME280;36548;50.506;30.834;2023-05-29T04:29:20;100372.22;;;21.77;29.71
50592;BME280;36548;50.506;30.834;2023-05-29T04:30:36;100374.79;;;21.95;29.44
50592;BME280;36548;50.506;30.834;2023-05-29T04:31:46;100368.62;;;21.85;29.11
50592;BME280;36548;50.506;30.834;2023-05-29T04:33:03;100371.53;;;22.00;29.12
50592;BME280;36548;50.506;30.834;2023-05-29T04:34:13;100372.55;;;21.90;29.06
50592;BME280;36548;50.506;30.834;2023-05-29T04:35:30;100372.37;;;22.00;28.83
50592;BME280;36548;50.506;30.834;2023-05-29T04:36:41;100380.25;;;21.87;29.14
50592;BME280;36548;50.506;30.834;2023-05-29T04:37:59;100377.70;;;21.93;29.17
50592;BME280;36548;50.506;30.834;2023-05-29T04:39:10;100378.34;;;21.79;29.09
50592;BME280;36548;50.506;30.834;2023-05-29T04:40:27;100366.05;;;21.83;29.51
50592;BME280;36548;50.506;30.834;2023-05-29T04:41:39;100385.50;;;21.63;29.57
50592;BME280;36548;50.506;30.834;2023-05-29T04:42:55;100374.59;;;21.72;29.70
50592;BME280;36548;50.506;30.834;2023-05-29T04:44:04;100376.45;;;21.55;30.03
50592;BME280;36548;50.506;30.834;2023-05-29T04:45:20;100365.02;;;21.68;30.04
50592;BME280;36548;50.506;30.834;2023-05-29T04:46:29;100371.17;;;21.61;29.83
50592;BME280;36548;50.506;30.834;2023-05-29T04:47:50;100365.56;;;21.79;29.58
50592;BME280;36548;50.506;30.834;2023-05-29T04:49:02;100371.84;;;21.63;29.19
50592;BME280;36548;50.506;30.834;2023-05-29T04:50:17;100360.23;;;21.78;29.68
50592;BME280;36548;50.506;30.834;2023-05-29T04:51:28;100376.31;;;21.73;29.72
50592;BME280;36548;50.506;30.834;2023-05-29T04:52:39;100381.59;;;21.66;29.79
50592;BME280;36548;50.506;30.834;2023-05-29T04:53:52;100379.21;;;21.71;29.68
50592;BME280;36548;50.506;30.834;2023-05-29T04:55:08;100362.48;;;21.83;29.70
50592;BME280;36548;50.506;30.834;2023-05-29T04:56:18;100376.78;;;21.60;29.65
50592;BME280;36548;50.506;30.834;2023-05-29T04:57:33;100369.14;;;21.80;30.12
50592;BME280;36548;50.506;30.834;2023-05-29T04:58:43;100371.33;;;21.68;29.71
50592;BME280;36548;50.506;30.834;2023-05-29T04:59:52;100377.07;;;21.49;30.07
50592;BME280;36548;50.506;30.834;2023-05-29T05:01:07;100374.06;;;21.68;30.29
50592;BME280;36548;50.506;30.834;2023-05-29T05:02:18;100374.75;;;21.62;30.36
50592;BME280;36548;50.506;30.834;2023-05-29T05:03:27;100378.85;;;21.66;30.41
50592;BME280;36548;50.506;30.834;2023-05-29T05:04:42;100383.13;;;21.69;30.45
50592;BME280;36548;50.506;30.834;2023-05-29T05:05:52;100385.33;;;21.65;30.57
50592;BME280;36548;50.506;30.834;2023-05-29T05:07:07;100377.16;;;21.82;30.46
50592;BME280;36548;50.506;30.834;2023-05-29T05:08:17;100386.37;;;21.80;30.48
50592;BME280;36548;50.506;30.834;2023-05-29T05:09:27;100383.83;;;21.87;30.33
50592;BME280;36548;50.506;30.834;2023-05-29T05:10:39;100374.44;;;21.90;30.35
50592;BME280;36548;50.506;30.834;2023-05-29T05:11:54;100375.11;;;22.08;30.21
50592;BME280;36548;50.506;30.834;2023-05-29T05:13:05;100376.33;;;22.06;30.11
50592;BME280;36548;50.506;30.834;2023-05-29T05:14:22;100365.53;;;22.21;29.89
50592;BME280;36548;50.506;30.834;2023-05-29T05:15:32;100375.11;;;22.17;29.67
50592;BME280;36548;50.506;30.834;2023-05-29T05:16:47;100365.38;;;22.39;29.79
50592;BME280;36548;50.506;30.834;2023-05-29T05:17:56;100368.11;;;22.39;29.84
50592;BME280;36548;50.506;30.834;2023-05-29T05:19:12;100365.89;;;22.42;30.21
50592;BME280;36548;50.506;30.834;2023-05-29T05:20:22;100378.38;;;22.45;30.22
50592;BME280;36548;50.506;30.834;2023-05-29T05:21:37;100372.53;;;22.56;29.27
50592;BME280;36548;50.506;30.834;2023-05-29T05:22:47;100377.51;;;22.36;29.21
50592;BME280;36548;50.506;30.834;2023-05-29T05:24:03;100372.56;;;22.40;29.53
50592;BME280;36548;50.506;30.834;2023-05-29T05:25:13;100388.30;;;22.38;29.15
50592;BME280;36548;50.506;30.834;2023-05-29T05:26:49;100379.55;;;22.51;28.85
50592;BME280;36548;50.506;30.834;2023-05-29T05:27:59;100372.19;;;22.51;29.04
50592;BME280;36548;50.506;30.834;2023-05-29T05:29:10;100378.66;;;22.58;29.07
50592;BME280;36548;50.506;30.834;2023-05-29T05:30:22;100379.83;;;22.72;29.38
50592;BME280;36548;50.506;30.834;2023-05-29T05:31:37;100378.09;;;22.88;29.06
50592;BME280;36548;50.506;30.834;2023-05-29T05:32:47;100379.59;;;22.90;28.89
50592;BME280;36548;50.506;30.834;2023-05-29T05:33:56;100378.55;;;22.99;28.48
50592;BME280;36548;50.506;30.834;2023-05-29T05:35:13;100378.88;;;23.05;28.68
50592;BME280;36548;50.506;30.834;2023-05-29T05:36:23;100382.13;;;23.00;28.43
50592;BME280;36548;50.506;30.834;2023-05-29T05:37:38;100376.94;;;23.22;28.06
50592;BME280;36548;50.506;30.834;2023-05-29T05:38:49;100383.26;;;23.22;28.12
50592;BME280;36548;50.506;30.834;2023-05-29T05:40:05;100378.52;;;23.47;27.91
50592;BME280;36548;50.506;30.834;2023-05-29T05:41:19;100388.88;;;23.29;27.64
50592;BME280;36548;50.506;30.834;2023-05-29T05:42:32;100386.55;;;23.09;27.92
50592;BME280;36548;50.506;30.834;2023-05-29T05:43:49;100379.96;;;23.35;28.02
50592;BME280;36548;50.506;30.834;2023-05-29T05:45:11;100390.19;;;23.41;27.91
50592;BME280;36548;50.506;30.834;2023-05-29T05:46:28;100388.95;;;23.75;27.91
50592;BME280;36548;50.506;30.834;2023-05-29T05:47:37;100389.02;;;23.67;27.95
50592;BME280;36548;50.506;30.834;2023-05-29T05:48:54;100395.04;;;23.86;26.86
50592;BME280;36548;50.506;30.834;2023-05-29T05:50:08;100399.66;;;23.62;27.15
50592;BME280;36548;50.506;30.834;2023-05-29T05:51:24;100399.73;;;23.77;26.78
50592;BME280;36548;50.506;30.834;2023-05-29T05:52:34;100398.39;;;23.73;26.80
50592;BME280;36548;50.506;30.834;2023-05-29T05:53:50;100386.41;;;23.97;26.78
50592;BME280;36548;50.506;30.834;2023-05-29T05:55:01;100390.50;;;24.01;26.72
50592;BME280;36548;50.506;30.834;2023-05-29T05:56:16;100394.95;;;24.02;26.57
50592;BME280;36548;50.506;30.834;2023-05-29T05:57:27;100390.93;;;23.90;27.01
50592;BME280;36548;50.506;30.834;2023-05-29T05:58:42;100384.10;;;24.09;26.25
50592;BME280;36548;50.506;30.834;2023-05-29T05:59:52;100393.55;;;24.06;26.58
50592;BME280;36548;50.506;30.834;2023-05-29T06:01:08;100390.94;;;24.28;26.56
50592;BME280;36548;50.506;30.834;2023-05-29T06:02:19;100393.34;;;24.31;26.49
50592;BME280;36548;50.506;30.834;2023-05-29T06:03:29;100392.88;;;24.42;26.22
50592;BME280;36548;50.506;30.834;2023-05-29T06:04:47;100380.63;;;24.68;26.21
50592;BME280;36548;50.506;30.834;2023-05-29T06:05:57;100382.53;;;24.67;26.24
50592;BME280;36548;50.506;30.834;2023-05-29T06:07:07;100392.09;;;24.72;26.13
50592;BME280;36548;50.506;30.834;2023-05-29T06:08:23;100380.83;;;24.96;26.19
50592;BME280;36548;50.506;30.834;2023-05-29T06:09:32;100383.77;;;24.80;25.83
50592;BME280;36548;50.506;30.834;2023-05-29T06:10:43;100384.90;;;24.85;25.83
50592;BME280;36548;50.506;30.834;2023-05-29T06:11:58;100382.70;;;25.11;25.82
50592;BME280;36548;50.506;30.834;2023-05-29T06:13:10;100389.81;;;24.90;25.65
50592;BME280;36548;50.506;30.834;2023-05-29T06:14:26;100382.50;;;25.12;25.86
50592;BME280;36548;50.506;30.834;2023-05-29T06:15:36;100388.19;;;25.11;25.51
50592;BME280;36548;50.506;30.834;2023-05-29T06:16:46;100383.47;;;25.19;25.56
50592;BME280;36548;50.506;30.834;2023-05-29T06:18:02;100382.97;;;25.31;25.40
50592;BME280;36548;50.506;30.834;2023-05-29T06:19:12;100385.34;;;25.19;25.56
50592;BME280;36548;50.506;30.834;2023-05-29T06:20:29;100390.00;;;25.04;25.41
50592;BME280;36548;50.506;30.834;2023-05-29T06:21:38;100389.27;;;24.95;25.55
50592;BME280;36548;50.506;30.834;2023-05-29T06:22:49;100387.45;;;25.02;25.78
50592;BME280;36548;50.506;30.834;2023-05-29T06:24:05;100385.03;;;25.29;25.47
50592;BME280;36548;50.506;30.834;2023-05-29T06:25:16;100384.00;;;25.30;25.10
50592;BME280;36548;50.506;30.834;2023-05-29T06:26:26;100383.73;;;25.40;24.76